sensor_id;sensor_type;location;lat;lon;timestamp;pressure;altitude;pressure_sealevel;temperature
29423;BMP180;16399;51.686;8.684;2023-03-16T00:01:16;100374.00;;;-0.20
29423;BMP180;16399;51.686;8.684;2023-03-16T00:04:18;100372.00;;;-0.20
29423;BMP180;16399;51.686;8.684;2023-03-16T00:07:21;100367.00;;;-0.10
29423;BMP180;16399;51.686;8.684;2023-03-16T00:10:24;100362.00;;;0.00
29423;BMP180;16399;51.686;8.684;2023-03-16T00:13:28;100362.00;;;0.00
29423;BMP180;16399;51.686;8.684;2023-03-16T00:16:30;100364.00;;;0.10
29423;BMP180;16399;51.686;8.684;2023-03-16T00:19:33;100373.00;;;0.20
29423;BMP180;16399;51.686;8.684;2023-03-16T00:22:37;100365.00;;;0.20
29423;BMP180;16399;51.686;8.684;2023-03-16T00:25:39;100365.00;;;0.20
29423;BMP180;16399;51.686;8.684;2023-03-16T00:28:42;100361.00;;;0.30
29423;BMP180;16399;51.686;8.684;2023-03-16T00:31:44;100375.00;;;0.30
29423;BMP180;16399;51.686;8.684;2023-03-16T00:34:47;100369.00;;;0.40
29423;BMP180;16399;51.686;8.684;2023-03-16T00:37:49;100357.00;;;0.40
29423;BMP180;16399;51.686;8.684;2023-03-16T00:40:51;100371.00;;;0.50
29423;BMP180;16399;51.686;8.684;2023-03-16T00:43:54;100366.00;;;0.50
29423;BMP180;16399;51.686;8.684;2023-03-16T00:46:56;100370.00;;;0.50
29423;BMP180;16399;51.686;8.684;2023-03-16T00:49:59;100362.00;;;0.50
29423;BMP180;16399;51.686;8.684;2023-03-16T00:53:02;100370.00;;;0.50
29423;BMP180;16399;51.686;8.684;2023-03-16T00:56:04;100354.00;;;0.50
29423;BMP180;16399;51.686;8.684;2023-03-16T00:59:07;100362.00;;;0.50
29423;BMP180;16399;51.686;8.684;2023-03-16T01:02:09;100361.00;;;0.50
29423;BMP180;16399;51.686;8.684;2023-03-16T01:05:13;100349.00;;;0.40
29423;BMP180;16399;51.686;8.684;2023-03-16T01:08:16;100344.00;;;0.40
29423;BMP180;16399;51.686;8.684;2023-03-16T01:11:21;100341.00;;;0.30
29423;BMP180;16399;51.686;8.684;2023-03-16T01:14:23;100339.00;;;0.30
29423;BMP180;16399;51.686;8.684;2023-03-16T01:17:26;100335.00;;;0.30
29423;BMP180;16399;51.686;8.684;2023-03-16T01:20:28;100324.00;;;0.20
29423;BMP180;16399;51.686;8.684;2023-03-16T01:23:31;100326.00;;;0.20
29423;BMP180;16399;51.686;8.684;2023-03-16T01:26:34;100317.00;;;0.20
29423;BMP180;16399;51.686;8.684;2023-03-16T01:29:36;100316.00;;;0.20
29423;BMP180;16399;51.686;8.684;2023-03-16T01:32:40;100304.00;;;0.20
29423;BMP180;16399;51.686;8.684;2023-03-16T01:35:54;100307.00;;;0.10
29423;BMP180;16399;51.686;8.684;2023-03-16T01:38:58;100308.00;;;0.10
29423;BMP180;16399;51.686;8.684;2023-03-16T01:42:00;100308.00;;;0.10
29423;BMP180;16399;51.686;8.684;2023-03-16T01:45:04;100319.00;;;0.10
29423;BMP180;16399;51.686;8.684;2023-03-16T01:48:06;100319.00;;;0.10
29423;BMP180;16399;51.686;8.684;2023-03-16T01:54:29;100308.00;;;0.10
29423;BMP180;16399;51.686;8.684;2023-03-16T01:57:33;100303.00;;;0.20
29423;BMP180;16399;51.686;8.684;2023-03-16T02:00:37;100306.00;;;0.20
29423;BMP180;16399;51.686;8.684;2023-03-16T02:03:42;100298.00;;;0.20
29423;BMP180;16399;51.686;8.684;2023-03-16T02:06:45;100291.00;;;0.20
29423;BMP180;16399;51.686;8.684;2023-03-16T02:09:50;100275.00;;;0.20
29423;BMP180;16399;51.686;8.684;2023-03-16T02:12:54;100276.00;;;0.20
29423;BMP180;16399;51.686;8.684;2023-03-16T02:15:58;100271.00;;;0.30
29423;BMP180;16399;51.686;8.684;2023-03-16T02:19:00;100262.00;;;0.30
29423;BMP180;16399;51.686;8.684;2023-03-16T02:22:06;100267.00;;;0.30
29423;BMP180;16399;51.686;8.684;2023-03-16T02:25:09;100253.00;;;0.30
29423;BMP180;16399;51.686;8.684;2023-03-16T02:28:28;100243.00;;;0.30
29423;BMP180;16399;51.686;8.684;2023-03-16T02:31:30;100223.00;;;0.30
29423;BMP180;16399;51.686;8.684;2023-03-16T02:34:32;100234.00;;;0.40
29423;BMP180;16399;51.686;8.684;2023-03-16T02:37:35;100230.00;;;0.40
29423;BMP180;16399;51.686;8.684;2023-03-16T02:40:38;100241.00;;;0.50
29423;BMP180;16399;51.686;8.684;2023-03-16T02:46:55;100245.00;;;0.60
29423;BMP180;16399;51.686;8.684;2023-03-16T02:49:58;100236.00;;;0.60
29423;BMP180;16399;51.686;8.684;2023-03-16T02:53:00;100235.00;;;0.60
29423;BMP180;16399;51.686;8.684;2023-03-16T02:56:03;100230.00;;;0.60
29423;BMP180;16399;51.686;8.684;2023-03-16T02:59:06;100229.00;;;0.60
29423;BMP180;16399;51.686;8.684;2023-03-16T03:02:08;100227.00;;;0.60
29423;BMP180;16399;51.686;8.684;2023-03-16T03:05:11;100225.00;;;0.60
29423;BMP180;16399;51.686;8.684;2023-03-16T03:08:14;100220.00;;;0.60
29423;BMP180;16399;51.686;8.684;2023-03-16T03:11:17;100208.00;;;0.60
29423;BMP180;16399;51.686;8.684;2023-03-16T03:14:19;100209.00;;;0.60
29423;BMP180;16399;51.686;8.684;2023-03-16T03:17:22;100217.00;;;0.60
29423;BMP180;16399;51.686;8.684;2023-03-16T03:20:26;100214.00;;;0.70
29423;BMP180;16399;51.686;8.684;2023-03-16T03:23:28;100202.00;;;0.70
29423;BMP180;16399;51.686;8.684;2023-03-16T03:26:30;100206.00;;;0.70
29423;BMP180;16399;51.686;8.684;2023-03-16T03:29:33;100206.00;;;0.70
29423;BMP180;16399;51.686;8.684;2023-03-16T03:32:35;100216.00;;;0.70
29423;BMP180;16399;51.686;8.684;2023-03-16T03:35:38;100221.00;;;0.80
29423;BMP180;16399;51.686;8.684;2023-03-16T03:38:42;100216.00;;;0.80
29423;BMP180;16399;51.686;8.684;2023-03-16T03:41:44;100207.00;;;0.80
29423;BMP180;16399;51.686;8.684;2023-03-16T03:44:46;100212.00;;;0.80
29423;BMP180;16399;51.686;8.684;2023-03-16T03:47:49;100208.00;;;0.90
29423;BMP180;16399;51.686;8.684;2023-03-16T03:50:51;100186.00;;;0.90
29423;BMP180;16399;51.686;8.684;2023-03-16T03:53:53;100189.00;;;1.00
29423;BMP180;16399;51.686;8.684;2023-03-16T03:56:56;100199.00;;;1.10
29423;BMP180;16399;51.686;8.684;2023-03-16T03:59:58;100190.00;;;1.10
29423;BMP180;16399;51.686;8.684;2023-03-16T04:03:01;100193.00;;;1.20
29423;BMP180;16399;51.686;8.684;2023-03-16T04:06:03;100189.00;;;1.20
29423;BMP180;16399;51.686;8.684;2023-03-16T04:09:07;100178.00;;;1.20
29423;BMP180;16399;51.686;8.684;2023-03-16T04:12:10;100182.00;;;1.30
29423;BMP180;16399;51.686;8.684;2023-03-16T04:15:12;100179.00;;;1.30
29423;BMP180;16399;51.686;8.684;2023-03-16T04:18:15;100187.00;;;1.30
29423;BMP180;16399;51.686;8.684;2023-03-16T04:21:17;100173.00;;;1.30
29423;BMP180;16399;51.686;8.684;2023-03-16T04:24:19;100180.00;;;1.40
29423;BMP180;16399;51.686;8.684;2023-03-16T04:27:22;100172.00;;;1.40
29423;BMP180;16399;51.686;8.684;2023-03-16T04:30:25;100171.00;;;1.40
29423;BMP180;16399;51.686;8.684;2023-03-16T04:36:34;100159.00;;;1.50
29423;BMP180;16399;51.686;8.684;2023-03-16T04:39:37;100166.00;;;1.50
29423;BMP180;16399;51.686;8.684;2023-03-16T04:42:39;100150.00;;;1.50
29423;BMP180;16399;51.686;8.684;2023-03-16T04:45:41;100166.00;;;1.60
29423;BMP180;16399;51.686;8.684;2023-03-16T04:48:44;100168.00;;;1.60
29423;BMP180;16399;51.686;8.684;2023-03-16T04:51:46;100173.00;;;1.70
29423;BMP180;16399;51.686;8.684;2023-03-16T04:54:48;100165.00;;;1.70
29423;BMP180;16399;51.686;8.684;2023-03-16T04:57:52;100165.00;;;1.80
29423;BMP180;16399;51.686;8.684;2023-03-16T05:00:54;100162.00;;;1.80
29423;BMP180;16399;51.686;8.684;2023-03-16T05:03:57;100163.00;;;1.80
29423;BMP180;16399;51.686;8.684;2023-03-16T05:06:59;100169.00;;;1.90
29423;BMP180;16399;51.686;8.684;2023-03-16T05:10:01;100159.00;;;1.90
29423;BMP180;16399;51.686;8.684;2023-03-16T05:13:04;100172.00;;;1.90
29423;BMP180;16399;51.686;8.684;2023-03-16T05:16:07;100167.00;;;2.00
29423;BMP180;16399;51.686;8.684;2023-03-16T05:19:09;100173.00;;;2.00
29423;BMP180;16399;51.686;8.684;2023-03-16T05:22:12;100178.00;;;2.10
29423;BMP180;16399;51.686;8.684;2023-03-16T05:25:16;100163.00;;;2.10
29423;BMP180;16399;51.686;8.684;2023-03-16T05:28:19;100177.00;;;2.20
29423;BMP180;16399;51.686;8.684;2023-03-16T05:31:21;100177.00;;;2.20
29423;BMP180;16399;51.686;8.684;2023-03-16T05:34:23;100163.00;;;2.30
29423;BMP180;16399;51.686;8.684;2023-03-16T05:37:26;100164.00;;;2.30
29423;BMP180;16399;51.686;8.684;2023-03-16T05:40:28;100151.00;;;2.40
29423;BMP180;16399;51.686;8.684;2023-03-16T05:43:31;100162.00;;;2.40
29423;BMP180;16399;51.686;8.684;2023-03-16T05:46:34;100154.00;;;2.50
29423;BMP180;16399;51.686;8.684;2023-03-16T05:49:36;100145.00;;;2.50
29423;BMP180;16399;51.686;8.684;2023-03-16T05:52:39;100146.00;;;2.50
29423;BMP180;16399;51.686;8.684;2023-03-16T05:55:42;100147.00;;;2.60
29423;BMP180;16399;51.686;8.684;2023-03-16T05:58:44;100145.00;;;2.60
29423;BMP180;16399;51.686;8.684;2023-03-16T06:01:46;100147.00;;;2.70
29423;BMP180;16399;51.686;8.684;2023-03-16T06:04:50;100138.00;;;2.70
29423;BMP180;16399;51.686;8.684;2023-03-16T06:07:52;100138.00;;;2.90
29423;BMP180;16399;51.686;8.684;2023-03-16T06:10:55;100138.00;;;3.00
29423;BMP180;16399;51.686;8.684;2023-03-16T06:13:58;100131.00;;;3.00
29423;BMP180;16399;51.686;8.684;2023-03-16T06:17:01;100134.00;;;3.10
29423;BMP180;16399;51.686;8.684;2023-03-16T06:20:05;100130.00;;;3.20
29423;BMP180;16399;51.686;8.684;2023-03-16T06:23:09;100127.00;;;3.20
29423;BMP180;16399;51.686;8.684;2023-03-16T06:26:12;100131.00;;;3.30
29423;BMP180;16399;51.686;8.684;2023-03-16T06:29:14;100123.00;;;3.30
29423;BMP180;16399;51.686;8.684;2023-03-16T06:32:16;100128.00;;;3.40
29423;BMP180;16399;51.686;8.684;2023-03-16T06:35:19;100119.00;;;3.40
29423;BMP180;16399;51.686;8.684;2023-03-16T06:38:21;100124.00;;;3.50
29423;BMP180;16399;51.686;8.684;2023-03-16T06:41:23;100121.00;;;3.50
29423;BMP180;16399;51.686;8.684;2023-03-16T06:44:25;100133.00;;;3.50
29423;BMP180;16399;51.686;8.684;2023-03-16T06:47:28;100127.00;;;3.60
29423;BMP180;16399;51.686;8.684;2023-03-16T06:50:30;100137.00;;;3.60
29423;BMP180;16399;51.686;8.684;2023-03-16T06:53:40;100148.00;;;3.70
29423;BMP180;16399;51.686;8.684;2023-03-16T06:56:42;100135.00;;;3.80
29423;BMP180;16399;51.686;8.684;2023-03-16T06:59:45;100127.00;;;3.90
29423;BMP180;16399;51.686;8.684;2023-03-16T07:02:47;100127.00;;;4.10
29423;BMP180;16399;51.686;8.684;2023-03-16T07:05:49;100126.00;;;4.20
29423;BMP180;16399;51.686;8.684;2023-03-16T07:08:52;100123.00;;;4.40
29423;BMP180;16399;51.686;8.684;2023-03-16T07:11:54;100126.00;;;4.50
29423;BMP180;16399;51.686;8.684;2023-03-16T07:14:56;100119.00;;;4.60
29423;BMP180;16399;51.686;8.684;2023-03-16T07:17:58;100117.00;;;4.80
29423;BMP180;16399;51.686;8.684;2023-03-16T07:21:01;100127.00;;;4.90
29423;BMP180;16399;51.686;8.684;2023-03-16T07:24:04;100119.00;;;4.90
29423;BMP180;16399;51.686;8.684;2023-03-16T07:27:07;100112.00;;;5.00
29423;BMP180;16399;51.686;8.684;2023-03-16T07:30:10;100127.00;;;5.10
29423;BMP180;16399;51.686;8.684;2023-03-16T07:33:13;100118.00;;;5.20
29423;BMP180;16399;51.686;8.684;2023-03-16T07:36:15;100122.00;;;5.30
29423;BMP180;16399;51.686;8.684;2023-03-16T07:39:18;100125.00;;;5.40
29423;BMP180;16399;51.686;8.684;2023-03-16T07:42:20;100126.00;;;5.50
29423;BMP180;16399;51.686;8.684;2023-03-16T07:45:23;100131.00;;;5.60
29423;BMP180;16399;51.686;8.684;2023-03-16T07:48:25;100135.00;;;5.70
29423;BMP180;16399;51.686;8.684;2023-03-16T07:51:27;100136.00;;;5.90
29423;BMP180;16399;51.686;8.684;2023-03-16T07:54:29;100138.00;;;5.90
29423;BMP180;16399;51.686;8.684;2023-03-16T07:57:32;100129.00;;;6.10
29423;BMP180;16399;51.686;8.684;2023-03-16T08:00:35;100128.00;;;6.20
29423;BMP180;16399;51.686;8.684;2023-03-16T08:03:38;100135.00;;;6.30
29423;BMP180;16399;51.686;8.684;2023-03-16T08:06:40;100125.00;;;6.40
29423;BMP180;16399;51.686;8.684;2023-03-16T08:09:42;100131.00;;;6.50
29423;BMP180;16399;51.686;8.684;2023-03-16T08:12:45;100143.00;;;6.70
29423;BMP180;16399;51.686;8.684;2023-03-16T08:15:49;100133.00;;;6.80
29423;BMP180;16399;51.686;8.684;2023-03-16T08:18:55;100124.00;;;7.00
29423;BMP180;16399;51.686;8.684;2023-03-16T08:21:57;100131.00;;;7.10
29423;BMP180;16399;51.686;8.684;2023-03-16T08:25:02;100137.00;;;7.30
29423;BMP180;16399;51.686;8.684;2023-03-16T08:28:04;100133.00;;;7.50
29423;BMP180;16399;51.686;8.684;2023-03-16T08:31:08;100137.00;;;7.70
29423;BMP180;16399;51.686;8.684;2023-03-16T08:34:10;100115.00;;;7.70
29423;BMP180;16399;51.686;8.684;2023-03-16T08:37:13;100121.00;;;7.80
29423;BMP180;16399;51.686;8.684;2023-03-16T08:40:16;100118.00;;;7.80
29423;BMP180;16399;51.686;8.684;2023-03-16T08:43:19;100116.00;;;7.90
29423;BMP180;16399;51.686;8.684;2023-03-16T08:46:21;100107.00;;;7.80
29423;BMP180;16399;51.686;8.684;2023-03-16T08:49:24;100116.00;;;7.90
29423;BMP180;16399;51.686;8.684;2023-03-16T08:52:27;100104.00;;;7.90
29423;BMP180;16399;51.686;8.684;2023-03-16T08:55:29;100108.00;;;8.00
29423;BMP180;16399;51.686;8.684;2023-03-16T08:58:32;100112.00;;;8.00
29423;BMP180;16399;51.686;8.684;2023-03-16T09:01:35;100100.00;;;8.30
29423;BMP180;16399;51.686;8.684;2023-03-16T09:04:37;100107.00;;;8.40
29423;BMP180;16399;51.686;8.684;2023-03-16T09:07:40;100106.00;;;8.60
29423;BMP180;16399;51.686;8.684;2023-03-16T09:10:43;100097.00;;;8.80
29423;BMP180;16399;51.686;8.684;2023-03-16T09:13:47;100105.00;;;9.00
29423;BMP180;16399;51.686;8.684;2023-03-16T09:16:49;100107.00;;;9.20
29423;BMP180;16399;51.686;8.684;2023-03-16T09:19:52;100099.00;;;9.20
29423;BMP180;16399;51.686;8.684;2023-03-16T09:22:56;100091.00;;;9.30
29423;BMP180;16399;51.686;8.684;2023-03-16T09:26:01;100104.00;;;9.40
29423;BMP180;16399;51.686;8.684;2023-03-16T09:29:03;100108.00;;;9.50
29423;BMP180;16399;51.686;8.684;2023-03-16T09:32:07;100104.00;;;9.80
29423;BMP180;16399;51.686;8.684;2023-03-16T09:35:10;100114.00;;;9.80
29423;BMP180;16399;51.686;8.684;2023-03-16T09:38:12;100112.00;;;10.00
29423;BMP180;16399;51.686;8.684;2023-03-16T09:47:41;100112.00;;;9.80
29423;BMP180;16399;51.686;8.684;2023-03-16T09:50:45;100110.00;;;9.90
29423;BMP180;16399;51.686;8.684;2023-03-16T09:53:51;100119.00;;;9.90
29423;BMP180;16399;51.686;8.684;2023-03-16T09:56:55;100112.00;;;10.00
29423;BMP180;16399;51.686;8.684;2023-03-16T10:00:21;100111.00;;;10.10
29423;BMP180;16399;51.686;8.684;2023-03-16T10:03:10;100107.00;;;10.10
29423;BMP180;16399;51.686;8.684;2023-03-16T10:06:12;100112.00;;;10.00
29423;BMP180;16399;51.686;8.684;2023-03-16T10:09:35;100102.00;;;10.00
29423;BMP180;16399;51.686;8.684;2023-03-16T10:12:38;100100.00;;;10.20
29423;BMP180;16399;51.686;8.684;2023-03-16T10:15:42;100110.00;;;10.30
29423;BMP180;16399;51.686;8.684;2023-03-16T10:18:47;100112.00;;;10.20
29423;BMP180;16399;51.686;8.684;2023-03-16T10:21:52;100109.00;;;10.10
29423;BMP180;16399;51.686;8.684;2023-03-16T10:25:15;100109.00;;;10.10
29423;BMP180;16399;51.686;8.684;2023-03-16T10:28:20;100103.00;;;10.10
29423;BMP180;16399;51.686;8.684;2023-03-16T10:31:22;100106.00;;;10.20
29423;BMP180;16399;51.686;8.684;2023-03-16T10:34:25;100101.00;;;10.20
29423;BMP180;16399;51.686;8.684;2023-03-16T10:37:29;100102.00;;;10.20
29423;BMP180;16399;51.686;8.684;2023-03-16T10:40:38;100117.00;;;10.30
29423;BMP180;16399;51.686;8.684;2023-03-16T10:43:39;100117.00;;;10.20
29423;BMP180;16399;51.686;8.684;2023-03-16T10:46:44;100103.00;;;10.20
29423;BMP180;16399;51.686;8.684;2023-03-16T10:49:48;100109.00;;;10.10
29423;BMP180;16399;51.686;8.684;2023-03-16T10:52:53;100096.00;;;10.00
29423;BMP180;16399;51.686;8.684;2023-03-16T10:56:00;100086.00;;;10.00
29423;BMP180;16399;51.686;8.684;2023-03-16T10:59:14;100089.00;;;10.10
29423;BMP180;16399;51.686;8.684;2023-03-16T11:02:23;100083.00;;;10.30
29423;BMP180;16399;51.686;8.684;2023-03-16T11:05:29;100083.00;;;10.50
29423;BMP180;16399;51.686;8.684;2023-03-16T11:08:37;100083.00;;;10.60
29423;BMP180;16399;51.686;8.684;2023-03-16T11:11:45;100079.00;;;10.70
29423;BMP180;16399;51.686;8.684;2023-03-16T11:14:46;100082.00;;;10.70
29423;BMP180;16399;51.686;8.684;2023-03-16T11:17:51;100077.00;;;10.70
29423;BMP180;16399;51.686;8.684;2023-03-16T11:20:59;100070.00;;;10.60
29423;BMP180;16399;51.686;8.684;2023-03-16T11:24:03;100068.00;;;10.60
29423;BMP180;16399;51.686;8.684;2023-03-16T11:27:14;100060.00;;;10.60
29423;BMP180;16399;51.686;8.684;2023-03-16T11:33:41;100074.00;;;10.30
29423;BMP180;16399;51.686;8.684;2023-03-16T11:46:35;100049.00;;;10.40
29423;BMP180;16399;51.686;8.684;2023-03-16T11:49:56;100032.00;;;10.50
29423;BMP180;16399;51.686;8.684;2023-03-16T11:56:38;100009.00;;;10.60
29423;BMP180;16399;51.686;8.684;2023-03-16T12:00:21;100017.00;;;10.70
29423;BMP180;16399;51.686;8.684;2023-03-16T12:07:01;100037.00;;;10.60
29423;BMP180;16399;51.686;8.684;2023-03-16T12:10:27;100030.00;;;10.70
29423;BMP180;16399;51.686;8.684;2023-03-16T12:16:52;100026.00;;;10.90
29423;BMP180;16399;51.686;8.684;2023-03-16T12:20:04;100024.00;;;11.00
29423;BMP180;16399;51.686;8.684;2023-03-16T12:23:17;100005.00;;;11.20
29423;BMP180;16399;51.686;8.684;2023-03-16T12:26:20;99995.00;;;11.20
29423;BMP180;16399;51.686;8.684;2023-03-16T12:29:27;99982.00;;;11.40
29423;BMP180;16399;51.686;8.684;2023-03-16T12:32:35;99987.00;;;11.40
29423;BMP180;16399;51.686;8.684;2023-03-16T12:35:43;99977.00;;;11.70
29423;BMP180;16399;51.686;8.684;2023-03-16T12:42:48;99965.00;;;12.10
29423;BMP180;16399;51.686;8.684;2023-03-16T12:46:00;99954.00;;;12.00
29423;BMP180;16399;51.686;8.684;2023-03-16T12:48:59;99949.00;;;11.90
29423;BMP180;16399;51.686;8.684;2023-03-16T12:52:06;99954.00;;;11.70
29423;BMP180;16399;51.686;8.684;2023-03-16T12:55:14;99951.00;;;11.70
29423;BMP180;16399;51.686;8.684;2023-03-16T12:58:17;99940.00;;;11.60
29423;BMP180;16399;51.686;8.684;2023-03-16T13:01:24;99933.00;;;11.50
29423;BMP180;16399;51.686;8.684;2023-03-16T13:04:33;99928.00;;;11.60
29423;BMP180;16399;51.686;8.684;2023-03-16T13:07:36;99930.00;;;11.50
29423;BMP180;16399;51.686;8.684;2023-03-16T13:10:41;99926.00;;;11.40
29423;BMP180;16399;51.686;8.684;2023-03-16T13:20:34;99910.00;;;10.80
29423;BMP180;16399;51.686;8.684;2023-03-16T13:24:11;99923.00;;;10.80
29423;BMP180;16399;51.686;8.684;2023-03-16T13:27:05;99911.00;;;10.80
29423;BMP180;16399;51.686;8.684;2023-03-16T13:30:29;99896.00;;;10.80
29423;BMP180;16399;51.686;8.684;2023-03-16T13:33:33;99894.00;;;10.90
29423;BMP180;16399;51.686;8.684;2023-03-16T13:36:41;99887.00;;;11.10
29423;BMP180;16399;51.686;8.684;2023-03-16T13:39:54;99880.00;;;11.20
29423;BMP180;16399;51.686;8.684;2023-03-16T13:42:57;99876.00;;;11.30
29423;BMP180;16399;51.686;8.684;2023-03-16T13:45:59;99872.00;;;11.30
29423;BMP180;16399;51.686;8.684;2023-03-16T13:49:02;99862.00;;;11.40
29423;BMP180;16399;51.686;8.684;2023-03-16T13:52:10;99849.00;;;11.50
29423;BMP180;16399;51.686;8.684;2023-03-16T13:55:16;99863.00;;;11.50
29423;BMP180;16399;51.686;8.684;2023-03-16T13:58:37;99865.00;;;11.50
29423;BMP180;16399;51.686;8.684;2023-03-16T14:01:37;99872.00;;;11.40
29423;BMP180;16399;51.686;8.684;2023-03-16T14:04:39;99861.00;;;11.30
29423;BMP180;16399;51.686;8.684;2023-03-16T14:07:41;99858.00;;;11.20
29423;BMP180;16399;51.686;8.684;2023-03-16T14:10:47;99854.00;;;11.10
29423;BMP180;16399;51.686;8.684;2023-03-16T14:13:52;99843.00;;;11.00
29423;BMP180;16399;51.686;8.684;2023-03-16T14:17:03;99848.00;;;10.90
29423;BMP180;16399;51.686;8.684;2023-03-16T14:20:08;99842.00;;;10.90
29423;BMP180;16399;51.686;8.684;2023-03-16T14:23:17;99829.00;;;10.90
29423;BMP180;16399;51.686;8.684;2023-03-16T14:26:20;99821.00;;;10.80
29423;BMP180;16399;51.686;8.684;2023-03-16T14:29:30;99824.00;;;10.80
29423;BMP180;16399;51.686;8.684;2023-03-16T14:32:33;99809.00;;;10.70
29423;BMP180;16399;51.686;8.684;2023-03-16T14:35:43;99808.00;;;10.80
29423;BMP180;16399;51.686;8.684;2023-03-16T14:38:46;99787.00;;;10.70
29423;BMP180;16399;51.686;8.684;2023-03-16T14:41:50;99784.00;;;10.60
29423;BMP180;16399;51.686;8.684;2023-03-16T14:44:54;99786.00;;;10.60
29423;BMP180;16399;51.686;8.684;2023-03-16T14:48:00;99795.00;;;10.60
29423;BMP180;16399;51.686;8.684;2023-03-16T14:51:03;99797.00;;;10.50
29423;BMP180;16399;51.686;8.684;2023-03-16T14:54:17;99787.00;;;10.50
29423;BMP180;16399;51.686;8.684;2023-03-16T14:57:22;99774.00;;;10.40
29423;BMP180;16399;51.686;8.684;2023-03-16T15:00:44;99773.00;;;10.50
29423;BMP180;16399;51.686;8.684;2023-03-16T15:03:46;99757.00;;;10.60
29423;BMP180;16399;51.686;8.684;2023-03-16T15:06:49;99765.00;;;10.90
29423;BMP180;16399;51.686;8.684;2023-03-16T15:09:53;99762.00;;;11.10
29423;BMP180;16399;51.686;8.684;2023-03-16T15:12:55;99746.00;;;11.20
29423;BMP180;16399;51.686;8.684;2023-03-16T15:16:04;99742.00;;;11.10
29423;BMP180;16399;51.686;8.684;2023-03-16T15:19:07;99738.00;;;10.90
29423;BMP180;16399;51.686;8.684;2023-03-16T15:22:10;99730.00;;;10.90
29423;BMP180;16399;51.686;8.684;2023-03-16T15:25:22;99730.00;;;10.80
29423;BMP180;16399;51.686;8.684;2023-03-16T15:28:25;99740.00;;;10.60
29423;BMP180;16399;51.686;8.684;2023-03-16T15:31:28;99734.00;;;10.60
29423;BMP180;16399;51.686;8.684;2023-03-16T15:34:30;99732.00;;;10.50
29423;BMP180;16399;51.686;8.684;2023-03-16T15:37:39;99717.00;;;10.40
29423;BMP180;16399;51.686;8.684;2023-03-16T15:40:42;99705.00;;;10.30
29423;BMP180;16399;51.686;8.684;2023-03-16T15:43:45;99703.00;;;10.30
29423;BMP180;16399;51.686;8.684;2023-03-16T15:46:48;99708.00;;;10.30
29423;BMP180;16399;51.686;8.684;2023-03-16T15:49:51;99702.00;;;10.30
29423;BMP180;16399;51.686;8.684;2023-03-16T15:53:03;99695.00;;;10.20
29423;BMP180;16399;51.686;8.684;2023-03-16T15:56:10;99684.00;;;10.20
29423;BMP180;16399;51.686;8.684;2023-03-16T15:59:15;99677.00;;;10.20
29423;BMP180;16399;51.686;8.684;2023-03-16T16:02:28;99668.00;;;10.30
29423;BMP180;16399;51.686;8.684;2023-03-16T16:05:32;99669.00;;;10.30
29423;BMP180;16399;51.686;8.684;2023-03-16T16:08:35;99673.00;;;10.30
29423;BMP180;16399;51.686;8.684;2023-03-16T16:11:38;99654.00;;;10.30
29423;BMP180;16399;51.686;8.684;2023-03-16T16:14:41;99660.00;;;10.40
29423;BMP180;16399;51.686;8.684;2023-03-16T16:17:44;99655.00;;;10.40
29423;BMP180;16399;51.686;8.684;2023-03-16T16:20:47;99648.00;;;10.40
29423;BMP180;16399;51.686;8.684;2023-03-16T16:23:50;99659.00;;;10.40
29423;BMP180;16399;51.686;8.684;2023-03-16T16:26:53;99662.00;;;10.40
29423;BMP180;16399;51.686;8.684;2023-03-16T16:29:55;99661.00;;;10.20
29423;BMP180;16399;51.686;8.684;2023-03-16T16:32:58;99658.00;;;10.00
29423;BMP180;16399;51.686;8.684;2023-03-16T16:36:04;99655.00;;;9.80
29423;BMP180;16399;51.686;8.684;2023-03-16T16:39:06;99657.00;;;9.60
29423;BMP180;16399;51.686;8.684;2023-03-16T16:42:14;99651.00;;;9.50
29423;BMP180;16399;51.686;8.684;2023-03-16T16:45:22;99651.00;;;9.30
29423;BMP180;16399;51.686;8.684;2023-03-16T16:48:34;99648.00;;;9.20
29423;BMP180;16399;51.686;8.684;2023-03-16T16:51:37;99647.00;;;9.10
29423;BMP180;16399;51.686;8.684;2023-03-16T16:54:39;99648.00;;;8.90
29423;BMP180;16399;51.686;8.684;2023-03-16T16:57:42;99648.00;;;8.90
29423;BMP180;16399;51.686;8.684;2023-03-16T17:00:47;99647.00;;;8.80
29423;BMP180;16399;51.686;8.684;2023-03-16T17:03:51;99644.00;;;8.70
29423;BMP180;16399;51.686;8.684;2023-03-16T17:06:59;99641.00;;;8.60
29423;BMP180;16399;51.686;8.684;2023-03-16T17:09:59;99639.00;;;8.50
29423;BMP180;16399;51.686;8.684;2023-03-16T17:13:01;99638.00;;;8.50
29423;BMP180;16399;51.686;8.684;2023-03-16T17:16:04;99629.00;;;8.40
29423;BMP180;16399;51.686;8.684;2023-03-16T17:19:30;99638.00;;;8.30
29423;BMP180;16399;51.686;8.684;2023-03-16T17:22:20;99629.00;;;8.30
29423;BMP180;16399;51.686;8.684;2023-03-16T17:25:23;99633.00;;;8.20
29423;BMP180;16399;51.686;8.684;2023-03-16T17:28:27;99636.00;;;8.10
29423;BMP180;16399;51.686;8.684;2023-03-16T17:31:37;99628.00;;;8.10
29423;BMP180;16399;51.686;8.684;2023-03-16T17:34:39;99628.00;;;8.00
29423;BMP180;16399;51.686;8.684;2023-03-16T17:37:42;99621.00;;;8.00
29423;BMP180;16399;51.686;8.684;2023-03-16T17:40:46;99630.00;;;7.90
29423;BMP180;16399;51.686;8.684;2023-03-16T17:43:50;99637.00;;;7.90
29423;BMP180;16399;51.686;8.684;2023-03-16T17:46:54;99627.00;;;7.90
29423;BMP180;16399;51.686;8.684;2023-03-16T17:49:57;99630.00;;;7.80
29423;BMP180;16399;51.686;8.684;2023-03-16T17:53:00;99622.00;;;7.80
29423;BMP180;16399;51.686;8.684;2023-03-16T17:56:26;99631.00;;;7.70
29423;BMP180;16399;51.686;8.684;2023-03-16T17:59:18;99620.00;;;7.70
29423;BMP180;16399;51.686;8.684;2023-03-16T18:02:28;99622.00;;;7.70
29423;BMP180;16399;51.686;8.684;2023-03-16T18:05:28;99603.00;;;7.60
29423;BMP180;16399;51.686;8.684;2023-03-16T18:08:31;99622.00;;;7.60
29423;BMP180;16399;51.686;8.684;2023-03-16T18:11:37;99622.00;;;7.60
29423;BMP180;16399;51.686;8.684;2023-03-16T18:14:41;99630.00;;;7.60
29423;BMP180;16399;51.686;8.684;2023-03-16T18:17:44;99634.00;;;7.60
29423;BMP180;16399;51.686;8.684;2023-03-16T18:20:48;99641.00;;;7.50
29423;BMP180;16399;51.686;8.684;2023-03-16T18:23:51;99641.00;;;7.50
29423;BMP180;16399;51.686;8.684;2023-03-16T18:26:54;99638.00;;;7.50
29423;BMP180;16399;51.686;8.684;2023-03-16T18:29:56;99631.00;;;7.50
29423;BMP180;16399;51.686;8.684;2023-03-16T18:32:59;99631.00;;;7.40